createdAt,value
2023-06-08T00:00:28.806Z,18.25
2023-06-08T00:03:34.015Z,18.25
2023-06-08T00:06:38.541Z,18.26
2023-06-08T00:09:42.285Z,18.21
2023-06-08T00:12:45.882Z,18.19
2023-06-08T00:15:48.578Z,18.25
2023-06-08T00:18:55.848Z,18.20
2023-06-08T00:22:00.320Z,18.26
2023-06-08T00:25:03.768Z,18.25
2023-06-08T00:28:06.535Z,18.23
2023-06-08T00:31:09.022Z,18.08
2023-06-08T00:34:12.425Z,18.16
2023-06-08T00:37:14.904Z,18.08
2023-06-08T00:40:17.623Z,18.04
2023-06-08T00:43:20.000Z,18.11
2023-06-08T00:46:25.852Z,18.09
2023-06-08T00:49:32.957Z,18.00
2023-06-08T00:52:38.582Z,18.04
2023-06-08T00:55:41.160Z,18.06
2023-06-08T00:58:48.159Z,17.96
2023-06-08T01:01:52.013Z,18.04
2023-06-08T01:04:55.366Z,18.07
2023-06-08T01:08:05.457Z,17.99
2023-06-08T01:11:24.070Z,18.08
2023-06-08T01:14:34.229Z,18.07
2023-06-08T01:17:48.459Z,18.10
2023-06-08T01:21:15.416Z,18.15
2023-06-08T01:24:21.386Z,18.15
2023-06-08T01:27:27.259Z,18.17
2023-06-08T01:30:29.975Z,18.17
2023-06-08T01:33:32.940Z,18.09
2023-06-08T01:36:45.595Z,18.09
2023-06-08T01:40:47.974Z,18.06
2023-06-08T01:43:52.522Z,18.18
2023-06-08T01:47:01.020Z,18.21
2023-06-08T01:50:07.181Z,18.15
2023-06-08T01:53:11.206Z,18.11
2023-06-08T01:56:15.126Z,18.23
2023-06-08T01:59:17.880Z,18.27
2023-06-08T02:02:21.063Z,18.27
2023-06-08T02:05:23.860Z,18.18
2023-06-08T02:08:26.257Z,18.30
2023-06-08T02:11:28.939Z,18.32
2023-06-08T02:14:31.361Z,18.22
2023-06-08T02:17:34.847Z,18.19
2023-06-08T02:20:37.514Z,18.18
2023-06-08T02:23:40.579Z,18.32
2023-06-08T02:26:44.034Z,18.32
2023-06-08T02:29:46.778Z,18.32
2023-06-08T02:32:49.457Z,18.27
2023-06-08T02:35:53.096Z,18.31
2023-06-08T02:38:55.496Z,18.27
2023-06-08T02:41:58.217Z,18.25
2023-06-08T02:45:00.765Z,18.22
2023-06-08T02:48:05.643Z,18.21
2023-06-08T02:51:08.176Z,18.09
2023-06-08T02:54:11.111Z,18.22
2023-06-08T02:57:13.517Z,18.24
2023-06-08T03:00:17.954Z,18.13
2023-06-08T03:03:24.354Z,18.22
2023-06-08T03:06:28.243Z,18.14
2023-06-08T03:09:32.092Z,18.28
2023-06-08T03:12:35.141Z,18.20
2023-06-08T03:15:38.894Z,18.30
2023-06-08T03:18:43.210Z,18.20
2023-06-08T03:21:45.717Z,18.16
2023-06-08T03:24:51.466Z,18.17
2023-06-08T03:27:55.953Z,18.18
2023-06-08T03:30:58.938Z,18.20
2023-06-08T03:34:02.813Z,18.11
2023-06-08T03:37:05.967Z,18.22
2023-06-08T03:40:11.038Z,18.20
2023-06-08T03:43:14.425Z,18.24
2023-06-08T03:46:17.589Z,18.16
2023-06-08T03:49:21.007Z,18.28
2023-06-08T03:52:24.883Z,18.22
2023-06-08T03:55:27.923Z,18.30
2023-06-08T03:58:31.109Z,18.40
2023-06-08T04:01:36.870Z,18.40
2023-06-08T04:04:40.775Z,18.45
2023-06-08T04:07:44.059Z,18.53
2023-06-08T04:10:46.787Z,18.43
2023-06-08T04:13:51.043Z,18.55
2023-06-08T04:16:54.552Z,18.56
2023-06-08T04:19:57.406Z,18.50
2023-06-08T04:23:00.824Z,18.63
2023-06-08T04:26:10.153Z,18.54
2023-06-08T04:29:13.723Z,18.64
2023-06-08T04:32:16.922Z,18.67
2023-06-08T04:35:19.767Z,18.66
2023-06-08T04:38:22.573Z,18.65
2023-06-08T04:41:27.016Z,18.66
2023-06-08T04:44:33.216Z,18.65
2023-06-08T04:47:37.095Z,18.76
2023-06-08T04:50:39.935Z,18.69
2023-06-08T04:53:43.750Z,18.76
2023-06-08T04:56:46.464Z,18.71
2023-06-08T04:59:50.634Z,18.73
2023-06-08T05:02:53.066Z,18.77
2023-06-08T05:05:56.545Z,18.73
2023-06-08T05:08:59.322Z,18.90
2023-06-08T05:12:02.020Z,18.97
2023-06-08T05:15:04.834Z,19.03
2023-06-08T05:18:07.645Z,19.05
2023-06-08T05:21:10.122Z,19.05
2023-06-08T05:24:12.946Z,19.01
2023-06-08T05:27:16.131Z,19.11
2023-06-08T05:30:18.798Z,19.14
2023-06-08T05:33:21.342Z,19.19
2023-06-08T05:36:24.237Z,19.24
2023-06-08T05:39:26.811Z,19.19
2023-06-08T05:42:32.272Z,19.03
2023-06-08T05:45:34.764Z,19.16
2023-06-08T05:48:38.156Z,19.12
2023-06-08T05:51:40.755Z,19.22
2023-06-08T05:54:43.663Z,19.29
2023-06-08T05:57:46.222Z,19.28
2023-06-08T06:00:48.897Z,19.27
2023-06-08T06:03:52.110Z,19.36
2023-06-08T06:06:54.749Z,19.54
2023-06-08T06:09:57.400Z,19.44
2023-06-08T06:12:59.960Z,19.68
2023-06-08T06:16:02.759Z,19.62
2023-06-08T06:19:05.191Z,19.79
2023-06-08T06:22:09.956Z,19.88
2023-06-08T06:25:12.379Z,19.85
2023-06-08T06:28:15.079Z,19.62
2023-06-08T06:31:17.658Z,19.45
2023-06-08T06:34:21.302Z,19.71
2023-06-08T06:37:23.800Z,19.72
2023-06-08T06:40:26.607Z,19.90
2023-06-08T06:43:29.104Z,19.76
2023-06-08T06:46:33.383Z,19.78
2023-06-08T06:49:39.370Z,19.78
2023-06-08T06:52:44.710Z,19.85
2023-06-08T06:55:47.293Z,19.69
2023-06-08T06:58:50.850Z,19.52
2023-06-08T07:01:53.353Z,19.76
2023-06-08T07:05:00.326Z,19.73
2023-06-08T07:08:02.805Z,19.71
2023-06-08T07:11:05.814Z,19.73
2023-06-08T07:14:08.639Z,19.71
2023-06-08T07:17:13.125Z,19.67
2023-06-08T07:20:15.811Z,19.67
2023-06-08T07:23:31.606Z,19.68
2023-06-08T07:26:41.280Z,19.60
2023-06-08T07:29:43.988Z,19.66
2023-06-08T07:32:47.538Z,19.81
2023-06-08T07:35:50.392Z,19.77
2023-06-08T07:38:52.840Z,19.77
2023-06-08T07:41:55.669Z,19.86
2023-06-08T07:44:58.044Z,19.82
2023-06-08T07:48:00.755Z,19.85
2023-06-08T07:51:03.285Z,19.77
2023-06-08T07:54:06.314Z,19.73
2023-06-08T07:57:09.070Z,19.66
2023-06-08T08:00:13.065Z,19.75
2023-06-08T08:03:15.401Z,19.75
2023-06-08T08:06:18.771Z,19.93
2023-06-08T08:09:21.310Z,19.96
2023-06-08T08:12:24.557Z,20.05
2023-06-08T08:15:27.795Z,20.03
2023-06-08T08:18:30.618Z,19.91
2023-06-08T08:21:33.272Z,19.87
2023-06-08T08:24:37.153Z,19.79
2023-06-08T08:27:39.509Z,19.89
2023-06-08T08:30:42.927Z,19.90
2023-06-08T08:33:45.803Z,19.86
2023-06-08T08:36:48.522Z,19.85
2023-06-08T08:39:50.888Z,20.02
2023-06-08T08:43:15.507Z,20.15
2023-06-08T08:46:22.313Z,20.54
2023-06-08T08:49:25.975Z,20.78
2023-06-08T08:52:30.422Z,20.92
2023-06-08T08:55:36.197Z,20.95
2023-06-08T08:58:39.760Z,21.13
2023-06-08T09:01:42.735Z,21.30
2023-06-08T09:04:45.897Z,21.32
2023-06-08T09:07:49.000Z,21.35
2023-06-08T09:11:12.723Z,21.36
2023-06-08T09:14:15.491Z,21.33
2023-06-08T09:17:39.252Z,21.48
2023-06-08T09:20:42.779Z,21.72
2023-06-08T09:23:45.540Z,21.88
2023-06-08T09:26:49.034Z,21.95
2023-06-08T09:29:51.714Z,22.08
2023-06-08T09:32:54.589Z,22.29
2023-06-08T09:35:59.768Z,22.60
2023-06-08T09:39:04.611Z,22.85
2023-06-08T09:42:07.654Z,23.23
2023-06-08T09:45:13.949Z,23.39
2023-06-08T09:48:16.389Z,23.16
2023-06-08T09:51:20.956Z,23.30
2023-06-08T09:54:23.459Z,23.65
2023-06-08T09:57:29.032Z,23.87
2023-06-08T10:00:31.716Z,23.98
2023-06-08T10:03:49.141Z,24.05
2023-06-08T10:06:58.677Z,24.17
2023-06-08T10:10:13.492Z,23.92
2023-06-08T10:13:16.911Z,23.68
2023-06-08T10:16:21.708Z,23.67
2023-06-08T10:19:24.937Z,23.89
2023-06-08T10:22:28.283Z,24.34
2023-06-08T10:25:31.731Z,23.91
2023-06-08T10:28:35.208Z,24.22
2023-06-08T10:31:41.487Z,23.96
2023-06-08T10:34:44.224Z,23.90
2023-06-08T10:37:47.286Z,23.78
2023-06-08T10:40:52.321Z,23.81
2023-06-08T10:44:01.383Z,23.75
2023-06-08T10:47:13.518Z,23.39
2023-06-08T10:50:19.267Z,23.28
2023-06-08T10:53:56.524Z,23.11
2023-06-08T10:57:15.392Z,23.00
2023-06-08T11:00:29.499Z,22.84
2023-06-08T11:03:46.419Z,22.58
2023-06-08T11:06:49.165Z,22.04
2023-06-08T11:09:51.936Z,21.42
2023-06-08T11:12:58.087Z,21.12
2023-06-08T11:16:02.070Z,21.21
2023-06-08T11:19:10.256Z,21.34
2023-06-08T11:22:13.266Z,21.43
2023-06-08T11:25:19.486Z,21.43
2023-06-08T11:28:22.480Z,21.32
2023-06-08T11:31:32.678Z,21.55
2023-06-08T11:34:35.235Z,21.57
2023-06-08T11:37:38.070Z,21.73
2023-06-08T11:40:43.347Z,21.81
2023-06-08T11:43:49.477Z,21.87
2023-06-08T11:46:52.354Z,21.97
2023-06-08T11:49:56.302Z,22.11
2023-06-08T11:53:01.832Z,22.15
2023-06-08T11:56:05.088Z,22.16
2023-06-08T11:59:07.617Z,22.15
2023-06-08T12:02:10.802Z,22.29
2023-06-08T12:05:16.748Z,22.22
2023-06-08T12:08:20.757Z,22.27
2023-06-08T12:11:26.274Z,22.19
2023-06-08T12:14:35.544Z,22.33
2023-06-08T12:17:40.750Z,22.50
2023-06-08T12:20:44.278Z,22.42
2023-06-08T12:23:47.165Z,22.49
2023-06-08T12:26:49.950Z,22.69
2023-06-08T12:29:52.722Z,22.75
2023-06-08T12:32:56.935Z,22.85
2023-06-08T12:35:59.889Z,22.81
2023-06-08T12:39:02.509Z,22.91
2023-06-08T12:42:05.737Z,23.00
2023-06-08T12:45:08.964Z,23.04
2023-06-08T12:48:12.022Z,23.17
2023-06-08T12:51:18.023Z,23.15
2023-06-08T12:54:21.080Z,23.17
2023-06-08T12:57:23.618Z,22.95
2023-06-08T13:00:26.809Z,23.04
2023-06-08T13:03:29.238Z,23.01
2023-06-08T13:06:32.327Z,23.00
2023-06-08T13:09:34.834Z,23.16
2023-06-08T13:12:37.778Z,23.18
2023-06-08T13:15:40.546Z,23.32
2023-06-08T13:18:43.530Z,23.18
2023-06-08T13:21:46.180Z,23.41
2023-06-08T13:24:50.219Z,23.36
2023-06-08T13:27:53.061Z,23.31
2023-06-08T13:30:55.801Z,23.58
2023-06-08T13:33:58.197Z,23.54
2023-06-08T13:37:02.353Z,23.67
2023-06-08T13:40:06.102Z,23.48
2023-06-08T13:43:11.241Z,23.50
2023-06-08T13:46:13.857Z,23.76
2023-06-08T13:49:16.820Z,23.96
2023-06-08T13:52:19.165Z,23.85
2023-06-08T13:55:21.745Z,23.95
2023-06-08T13:58:24.222Z,24.12
2023-06-08T14:01:28.606Z,23.92
2023-06-08T14:04:31.370Z,23.82
2023-06-08T14:07:33.836Z,24.07
2023-06-08T14:10:36.517Z,24.11
2023-06-08T14:13:38.961Z,24.22
2023-06-08T14:16:42.542Z,24.38
2023-06-08T14:19:47.577Z,24.65
2023-06-08T14:22:50.959Z,24.61
2023-06-08T14:25:53.303Z,24.48
2023-06-08T14:28:56.434Z,24.78
2023-06-08T14:31:58.915Z,25.30
2023-06-08T14:35:01.757Z,25.14
2023-06-08T14:38:04.721Z,25.37
2023-06-08T14:41:07.404Z,25.31
2023-06-08T14:44:09.906Z,25.46
2023-06-08T14:47:12.825Z,25.57
2023-06-08T14:50:15.288Z,25.40
2023-06-08T14:53:18.125Z,25.47
2023-06-08T14:56:20.570Z,25.69
2023-06-08T14:59:23.310Z,25.58
2023-06-08T15:02:25.763Z,25.37
2023-06-08T15:05:31.250Z,25.44
2023-06-08T15:08:33.636Z,25.44
2023-06-08T15:11:36.438Z,25.55
2023-06-08T15:14:39.035Z,25.92
2023-06-08T15:17:41.724Z,25.93
2023-06-08T15:20:44.221Z,25.57
2023-06-08T15:23:47.880Z,25.22
2023-06-08T15:26:52.137Z,24.78
2023-06-08T15:29:54.818Z,24.53
2023-06-08T15:32:57.228Z,24.30
2023-06-08T15:36:00.013Z,24.31
2023-06-08T15:39:04.555Z,24.44
2023-06-08T15:42:08.012Z,24.24
2023-06-08T15:45:11.088Z,24.27
2023-06-08T15:48:14.267Z,24.18
2023-06-08T15:51:16.823Z,24.20
2023-06-08T15:54:19.545Z,24.29
2023-06-08T15:57:21.995Z,24.26
2023-06-08T16:00:24.938Z,24.10
2023-06-08T16:03:27.710Z,24.05
2023-06-08T16:06:30.167Z,24.07
2023-06-08T16:09:32.876Z,23.89
2023-06-08T16:12:35.463Z,23.96
2023-06-08T16:15:38.185Z,23.95
2023-06-08T16:18:41.869Z,23.94
2023-06-08T16:21:47.516Z,23.68
2023-06-08T16:24:49.958Z,23.68
2023-06-08T16:27:52.970Z,23.60
2023-06-08T16:30:56.216Z,23.55
2023-06-08T16:33:58.939Z,23.41
2023-06-08T16:37:01.722Z,23.42
2023-06-08T16:40:05.297Z,23.33
2023-06-08T16:43:09.175Z,23.33
2023-06-08T16:46:12.620Z,23.21
2023-06-08T16:49:15.718Z,23.20
2023-06-08T16:52:18.402Z,23.10
2023-06-08T16:55:21.046Z,23.02
2023-06-08T16:58:24.366Z,22.99
2023-06-08T17:01:26.916Z,22.91
2023-06-08T17:04:29.797Z,22.95
2023-06-08T17:07:32.417Z,22.85
2023-06-08T17:10:36.828Z,22.85
2023-06-08T17:13:41.426Z,22.90
2023-06-08T17:16:47.683Z,22.90
2023-06-08T17:19:50.962Z,22.80
2023-06-08T17:22:53.705Z,22.79
2023-06-08T17:25:56.211Z,22.79
2023-06-08T17:28:58.979Z,22.75
2023-06-08T17:32:01.474Z,22.73
2023-06-08T17:35:04.695Z,22.74
2023-06-08T17:38:08.871Z,22.67
2023-06-08T17:41:11.990Z,22.58
2023-06-08T17:44:14.691Z,22.52
2023-06-08T17:47:17.378Z,22.48
2023-06-08T17:50:19.837Z,22.41
2023-06-08T17:53:22.492Z,22.28
2023-06-08T17:56:25.405Z,22.27
2023-06-08T17:59:28.114Z,22.09
2023-06-08T18:02:31.629Z,22.15
2023-06-08T18:05:35.330Z,21.88
2023-06-08T18:08:37.824Z,21.85
2023-06-08T18:11:41.052Z,21.81
2023-06-08T18:14:43.525Z,21.85
2023-06-08T18:17:46.300Z,21.84
2023-06-08T18:20:48.802Z,21.79
2023-06-08T18:23:57.442Z,21.74
2023-06-08T18:26:59.967Z,21.66
2023-06-08T18:30:08.449Z,21.62
2023-06-08T18:33:11.011Z,21.54
2023-06-08T18:36:13.765Z,21.44
2023-06-08T18:39:16.533Z,21.40
2023-06-08T18:42:19.358Z,21.39
2023-06-08T18:45:21.771Z,21.49
2023-06-08T18:48:24.543Z,21.40
2023-06-08T18:51:27.290Z,21.52
2023-06-08T18:54:31.202Z,21.52
2023-06-08T18:57:34.150Z,21.44
2023-06-08T19:00:36.928Z,21.43
2023-06-08T19:03:39.552Z,21.39
2023-06-08T19:06:42.409Z,21.43
2023-06-08T19:09:45.693Z,21.37
2023-06-08T19:12:48.487Z,21.34
2023-06-08T19:15:50.822Z,21.25
2023-06-08T19:18:53.695Z,21.34
2023-06-08T19:21:56.190Z,21.34
2023-06-08T19:24:59.864Z,21.29
2023-06-08T19:28:02.354Z,21.23
2023-06-08T19:31:06.100Z,21.20
2023-06-08T19:34:08.549Z,21.04
2023-06-08T19:37:11.788Z,21.07
2023-06-08T19:40:14.340Z,21.02
2023-06-08T19:43:17.061Z,20.99
2023-06-08T19:46:23.601Z,20.88
2023-06-08T19:49:26.682Z,20.96
2023-06-08T19:52:29.282Z,20.93
2023-06-08T19:55:32.042Z,20.88
2023-06-08T19:58:34.954Z,20.91
2023-06-08T20:01:37.999Z,20.89
2023-06-08T20:04:40.970Z,20.86
2023-06-08T20:07:44.126Z,20.82
2023-06-08T20:10:46.913Z,20.83
2023-06-08T20:13:49.567Z,20.80
2023-06-08T20:16:53.464Z,20.73
2023-06-08T20:19:56.194Z,20.81
2023-06-08T20:22:58.946Z,20.73
2023-06-08T20:26:01.365Z,20.81
2023-06-08T20:29:04.405Z,20.81
2023-06-08T20:32:07.568Z,20.85
2023-06-08T20:35:10.566Z,20.82
2023-06-08T20:38:12.918Z,20.85
2023-06-08T20:41:16.067Z,20.73
2023-06-08T20:44:18.490Z,20.85
2023-06-08T20:47:21.194Z,20.75
2023-06-08T20:53:26.403Z,20.78
2023-06-08T20:56:28.792Z,20.80
2023-06-08T20:59:32.228Z,20.73
2023-06-08T21:02:36.331Z,20.80
2023-06-08T21:05:42.700Z,20.70
2023-06-08T21:08:45.059Z,20.78
2023-06-08T21:11:50.131Z,20.66
2023-06-08T21:14:55.484Z,20.70
2023-06-08T21:17:59.617Z,20.62
2023-06-08T21:21:03.065Z,20.57
2023-06-08T21:24:06.336Z,20.44
2023-06-08T21:27:08.769Z,20.51
2023-06-08T21:30:11.690Z,20.51
2023-06-08T21:33:14.402Z,20.52
2023-06-08T21:36:17.264Z,20.51
2023-06-08T21:39:19.669Z,20.52
2023-06-08T21:42:22.336Z,20.51
2023-06-08T21:45:24.827Z,20.49
2023-06-08T21:48:27.698Z,20.45
2023-06-08T21:51:30.214Z,20.36
2023-06-08T21:54:32.883Z,20.45
2023-06-08T21:57:35.718Z,20.42
2023-06-08T22:00:38.432Z,20.35
2023-06-08T22:03:41.493Z,20.36
2023-06-08T22:06:44.343Z,20.52
2023-06-08T22:09:46.996Z,20.50
2023-06-08T22:12:50.269Z,20.40
2023-06-08T22:15:53.405Z,20.39
2023-06-08T22:18:55.873Z,20.42
2023-06-08T22:21:59.194Z,20.40
2023-06-08T22:25:01.572Z,20.38
2023-06-08T22:28:04.643Z,20.31
2023-06-08T22:31:07.967Z,20.27
2023-06-08T22:34:10.752Z,20.28
2023-06-08T22:37:13.224Z,20.40
2023-06-08T22:40:15.982Z,20.41
2023-06-08T22:43:18.723Z,20.42
2023-06-08T22:46:21.747Z,20.37
2023-06-08T22:49:24.105Z,20.35
2023-06-08T22:52:29.763Z,20.23
2023-06-08T22:55:32.156Z,20.26
2023-06-08T22:58:34.820Z,20.19
2023-06-08T23:01:37.402Z,20.11
2023-06-08T23:04:46.204Z,19.97
2023-06-08T23:07:49.937Z,19.96
2023-06-08T23:10:59.078Z,20.00
2023-06-08T23:14:04.711Z,20.02
2023-06-08T23:17:11.203Z,19.92
2023-06-08T23:20:13.759Z,20.00
2023-06-08T23:23:16.393Z,19.98
2023-06-08T23:26:18.800Z,19.91
2023-06-08T23:29:21.488Z,19.88
2023-06-08T23:32:24.121Z,19.84
2023-06-08T23:35:26.841Z,19.88
2023-06-08T23:38:29.291Z,19.96
2023-06-08T23:41:32.296Z,19.92
2023-06-08T23:44:35.310Z,19.86
2023-06-08T23:47:39.187Z,19.93
2023-06-08T23:50:41.661Z,19.87
2023-06-08T23:53:44.373Z,19.85
2023-06-08T23:56:46.785Z,19.96
2023-06-08T23:59:49.448Z,19.83
